sensor_id;sensor_type;location;lat;lon;timestamp;temperature;humidity
8684;DHT22;4379;59.744;18.206;2022-12-24T00:01:04;-8.90;99.90
8684;DHT22;4379;59.744;18.206;2022-12-24T00:03:32;-8.90;99.90
8684;DHT22;4379;59.744;18.206;2022-12-24T00:06:06;-9.00;99.90
8684;DHT22;4379;59.744;18.206;2022-12-24T00:08:34;-9.00;99.90
8684;DHT22;4379;59.744;18.206;2022-12-24T00:11:01;-9.00;99.90
8684;DHT22;4379;59.744;18.206;2022-12-24T00:13:28;-9.00;99.90
8684;DHT22;4379;59.744;18.206;2022-12-24T00:15:55;-9.00;99.90
8684;DHT22;4379;59.744;18.206;2022-12-24T00:18:23;-9.10;99.90
8684;DHT22;4379;59.744;18.206;2022-12-24T00:20:50;-9.10;99.90
8684;DHT22;4379;59.744;18.206;2022-12-24T00:23:17;-9.10;99.90
8684;DHT22;4379;59.744;18.206;2022-12-24T00:25:46;-9.10;99.90
8684;DHT22;4379;59.744;18.206;2022-12-24T00:28:14;-9.20;99.90
8684;DHT22;4379;59.744;18.206;2022-12-24T00:30:42;-9.00;99.90
8684;DHT22;4379;59.744;18.206;2022-12-24T00:33:09;-9.10;99.90
8684;DHT22;4379;59.744;18.206;2022-12-24T00:35:37;-9.00;99.90
8684;DHT22;4379;59.744;18.206;2022-12-24T00:38:05;-9.00;99.90
8684;DHT22;4379;59.744;18.206;2022-12-24T00:40:33;-9.00;99.90
8684;DHT22;4379;59.744;18.206;2022-12-24T00:43:00;-8.90;99.90
8684;DHT22;4379;59.744;18.206;2022-12-24T00:45:28;-8.80;99.90
8684;DHT22;4379;59.744;18.206;2022-12-24T00:47:55;-8.80;99.90
8684;DHT22;4379;59.744;18.206;2022-12-24T00:50:22;-8.80;99.90
8684;DHT22;4379;59.744;18.206;2022-12-24T00:52:49;-8.90;99.90
8684;DHT22;4379;59.744;18.206;2022-12-24T00:55:16;-8.80;99.90
8684;DHT22;4379;59.744;18.206;2022-12-24T00:57:44;-8.70;99.90
8684;DHT22;4379;59.744;18.206;2022-12-24T01:00:11;-8.80;99.90
8684;DHT22;4379;59.744;18.206;2022-12-24T01:02:38;-8.90;99.90
8684;DHT22;4379;59.744;18.206;2022-12-24T01:05:06;-9.00;99.90
8684;DHT22;4379;59.744;18.206;2022-12-24T01:07:41;-9.00;99.90
8684;DHT22;4379;59.744;18.206;2022-12-24T01:10:15;-9.10;99.90
8684;DHT22;4379;59.744;18.206;2022-12-24T01:12:42;-9.10;99.90
8684;DHT22;4379;59.744;18.206;2022-12-24T01:15:11;-9.10;99.90
8684;DHT22;4379;59.744;18.206;2022-12-24T01:17:39;-9.10;99.90
8684;DHT22;4379;59.744;18.206;2022-12-24T01:20:10;-9.20;99.90
8684;DHT22;4379;59.744;18.206;2022-12-24T01:22:38;-9.10;99.90
8684;DHT22;4379;59.744;18.206;2022-12-24T01:25:06;-9.10;99.90
8684;DHT22;4379;59.744;18.206;2022-12-24T01:27:33;-9.20;99.90
8684;DHT22;4379;59.744;18.206;2022-12-24T01:30:00;-9.20;99.90
8684;DHT22;4379;59.744;18.206;2022-12-24T01:32:28;-9.20;99.90
8684;DHT22;4379;59.744;18.206;2022-12-24T01:34:55;-9.30;99.90
8684;DHT22;4379;59.744;18.206;2022-12-24T01:37:22;-9.20;99.90
8684;DHT22;4379;59.744;18.206;2022-12-24T01:39:49;-9.20;99.90
8684;DHT22;4379;59.744;18.206;2022-12-24T01:42:22;-9.30;99.90
8684;DHT22;4379;59.744;18.206;2022-12-24T01:50:43;-9.40;99.90
8684;DHT22;4379;59.744;18.206;2022-12-24T01:53:13;-9.20;99.90
8684;DHT22;4379;59.744;18.206;2022-12-24T01:55:41;-9.40;99.90
8684;DHT22;4379;59.744;18.206;2022-12-24T01:58:10;-9.30;99.90
8684;DHT22;4379;59.744;18.206;2022-12-24T02:00:39;-9.40;99.90
8684;DHT22;4379;59.744;18.206;2022-12-24T02:03:06;-9.20;99.90
8684;DHT22;4379;59.744;18.206;2022-12-24T02:05:47;-9.20;99.90
8684;DHT22;4379;59.744;18.206;2022-12-24T02:08:15;-9.20;99.90
8684;DHT22;4379;59.744;18.206;2022-12-24T02:10:44;-9.30;99.90
8684;DHT22;4379;59.744;18.206;2022-12-24T02:13:13;-9.30;99.90
8684;DHT22;4379;59.744;18.206;2022-12-24T02:15:48;-9.30;99.90
8684;DHT22;4379;59.744;18.206;2022-12-24T02:32:22;-9.50;99.90
8684;DHT22;4379;59.744;18.206;2022-12-24T02:34:54;-9.60;99.90
8684;DHT22;4379;59.744;18.206;2022-12-24T02:37:29;-9.70;99.90
8684;DHT22;4379;59.744;18.206;2022-12-24T02:40:03;-9.70;99.90
8684;DHT22;4379;59.744;18.206;2022-12-24T02:42:44;-9.70;99.90
8684;DHT22;4379;59.744;18.206;2022-12-24T02:45:17;-9.70;99.90
8684;DHT22;4379;59.744;18.206;2022-12-24T02:47:47;-9.70;99.90
8684;DHT22;4379;59.744;18.206;2022-12-24T02:50:17;-9.70;99.90
8684;DHT22;4379;59.744;18.206;2022-12-24T02:52:46;-9.70;99.90
8684;DHT22;4379;59.744;18.206;2022-12-24T02:55:21;-9.80;99.90
8684;DHT22;4379;59.744;18.206;2022-12-24T03:01:04;-9.70;99.90
8684;DHT22;4379;59.744;18.206;2022-12-24T03:06:55;-9.60;99.90
8684;DHT22;4379;59.744;18.206;2022-12-24T03:09:27;-9.70;99.90
8684;DHT22;4379;59.744;18.206;2022-12-24T03:12:01;-9.80;99.90
8684;DHT22;4379;59.744;18.206;2022-12-24T03:14:31;-9.80;99.90
8684;DHT22;4379;59.744;18.206;2022-12-24T03:17:02;-9.80;99.90
8684;DHT22;4379;59.744;18.206;2022-12-24T03:19:30;-9.80;99.90
8684;DHT22;4379;59.744;18.206;2022-12-24T03:21:58;-9.90;99.90
8684;DHT22;4379;59.744;18.206;2022-12-24T03:24:28;-9.90;99.90
8684;DHT22;4379;59.744;18.206;2022-12-24T03:26:55;-9.90;99.90
8684;DHT22;4379;59.744;18.206;2022-12-24T03:29:22;-9.90;99.90
8684;DHT22;4379;59.744;18.206;2022-12-24T03:31:51;-9.90;99.90
8684;DHT22;4379;59.744;18.206;2022-12-24T03:34:19;-9.90;99.90
8684;DHT22;4379;59.744;18.206;2022-12-24T03:36:47;-9.90;99.90
8684;DHT22;4379;59.744;18.206;2022-12-24T03:39:14;-9.80;99.90
8684;DHT22;4379;59.744;18.206;2022-12-24T03:41:42;-9.80;99.90
8684;DHT22;4379;59.744;18.206;2022-12-24T03:44:09;-9.80;99.90
8684;DHT22;4379;59.744;18.206;2022-12-24T03:46:36;-9.80;99.90
8684;DHT22;4379;59.744;18.206;2022-12-24T03:49:03;-9.60;99.90
8684;DHT22;4379;59.744;18.206;2022-12-24T03:51:30;-9.60;99.90
8684;DHT22;4379;59.744;18.206;2022-12-24T03:53:59;-9.70;99.90
8684;DHT22;4379;59.744;18.206;2022-12-24T03:56:26;-9.60;99.90
8684;DHT22;4379;59.744;18.206;2022-12-24T03:58:54;-9.70;99.90
8684;DHT22;4379;59.744;18.206;2022-12-24T04:01:21;-9.70;99.90
8684;DHT22;4379;59.744;18.206;2022-12-24T04:03:48;-9.70;99.90
8684;DHT22;4379;59.744;18.206;2022-12-24T04:06:16;-9.80;99.90
8684;DHT22;4379;59.744;18.206;2022-12-24T04:08:44;-9.80;99.90
8684;DHT22;4379;59.744;18.206;2022-12-24T04:11:14;-9.90;99.90
8684;DHT22;4379;59.744;18.206;2022-12-24T04:13:41;-9.90;99.90
8684;DHT22;4379;59.744;18.206;2022-12-24T04:16:11;-9.90;99.90
8684;DHT22;4379;59.744;18.206;2022-12-24T04:18:39;-9.80;99.90
8684;DHT22;4379;59.744;18.206;2022-12-24T04:21:07;-9.80;99.90
8684;DHT22;4379;59.744;18.206;2022-12-24T04:23:36;-9.80;99.90
8684;DHT22;4379;59.744;18.206;2022-12-24T04:26:07;-9.70;99.90
8684;DHT22;4379;59.744;18.206;2022-12-24T04:28:35;-9.80;99.90
8684;DHT22;4379;59.744;18.206;2022-12-24T04:31:07;-9.80;99.90
8684;DHT22;4379;59.744;18.206;2022-12-24T04:33:35;-9.60;99.90
8684;DHT22;4379;59.744;18.206;2022-12-24T04:36:04;-9.60;99.90
8684;DHT22;4379;59.744;18.206;2022-12-24T04:38:33;-9.70;99.90
8684;DHT22;4379;59.744;18.206;2022-12-24T04:41:12;-9.70;99.90
8684;DHT22;4379;59.744;18.206;2022-12-24T04:43:48;-9.70;99.90
8684;DHT22;4379;59.744;18.206;2022-12-24T04:46:18;-9.70;99.90
8684;DHT22;4379;59.744;18.206;2022-12-24T04:48:48;-9.70;99.90
8684;DHT22;4379;59.744;18.206;2022-12-24T04:51:16;-9.80;99.90
8684;DHT22;4379;59.744;18.206;2022-12-24T04:53:44;-9.80;99.90
8684;DHT22;4379;59.744;18.206;2022-12-24T04:56:13;-9.80;99.90
8684;DHT22;4379;59.744;18.206;2022-12-24T04:58:41;-9.80;99.90
8684;DHT22;4379;59.744;18.206;2022-12-24T05:01:12;-9.70;99.90
8684;DHT22;4379;59.744;18.206;2022-12-24T05:03:40;-9.70;99.90
8684;DHT22;4379;59.744;18.206;2022-12-24T05:06:11;-9.80;99.90
8684;DHT22;4379;59.744;18.206;2022-12-24T05:08:38;-9.70;99.90
8684;DHT22;4379;59.744;18.206;2022-12-24T05:11:06;-9.80;99.90
8684;DHT22;4379;59.744;18.206;2022-12-24T05:13:34;-9.80;99.90
8684;DHT22;4379;59.744;18.206;2022-12-24T05:16:12;-9.90;99.90
8684;DHT22;4379;59.744;18.206;2022-12-24T05:18:40;-9.80;99.90
8684;DHT22;4379;59.744;18.206;2022-12-24T05:21:13;-9.80;99.90
8684;DHT22;4379;59.744;18.206;2022-12-24T05:23:41;-9.80;99.90
8684;DHT22;4379;59.744;18.206;2022-12-24T05:26:30;-9.80;99.90
8684;DHT22;4379;59.744;18.206;2022-12-24T05:28:59;-9.80;99.90
8684;DHT22;4379;59.744;18.206;2022-12-24T05:31:28;-9.80;99.90
8684;DHT22;4379;59.744;18.206;2022-12-24T05:33:56;-9.90;99.90
8684;DHT22;4379;59.744;18.206;2022-12-24T05:36:23;-9.90;99.90
8684;DHT22;4379;59.744;18.206;2022-12-24T05:38:51;-10.00;99.90
8684;DHT22;4379;59.744;18.206;2022-12-24T05:41:18;-10.00;99.90
8684;DHT22;4379;59.744;18.206;2022-12-24T05:43:46;-10.00;99.90
8684;DHT22;4379;59.744;18.206;2022-12-24T05:46:16;-10.00;99.90
8684;DHT22;4379;59.744;18.206;2022-12-24T05:48:46;-10.10;99.90
8684;DHT22;4379;59.744;18.206;2022-12-24T05:51:14;-9.90;99.90
8684;DHT22;4379;59.744;18.206;2022-12-24T05:53:41;-9.90;99.90
8684;DHT22;4379;59.744;18.206;2022-12-24T05:56:17;-9.70;99.90
8684;DHT22;4379;59.744;18.206;2022-12-24T05:58:45;-9.80;99.90
8684;DHT22;4379;59.744;18.206;2022-12-24T06:01:13;-9.80;99.90
8684;DHT22;4379;59.744;18.206;2022-12-24T06:03:41;-9.80;99.90
8684;DHT22;4379;59.744;18.206;2022-12-24T06:06:14;-10.00;99.90
8684;DHT22;4379;59.744;18.206;2022-12-24T06:08:42;-10.00;99.90
8684;DHT22;4379;59.744;18.206;2022-12-24T06:11:11;-10.10;99.90
8684;DHT22;4379;59.744;18.206;2022-12-24T06:13:39;-10.20;99.90
8684;DHT22;4379;59.744;18.206;2022-12-24T06:16:10;-10.40;99.90
8684;DHT22;4379;59.744;18.206;2022-12-24T06:18:38;-10.20;99.90
8684;DHT22;4379;59.744;18.206;2022-12-24T06:21:05;-10.30;99.90
8684;DHT22;4379;59.744;18.206;2022-12-24T06:23:36;-10.30;99.90
8684;DHT22;4379;59.744;18.206;2022-12-24T06:26:04;-10.30;99.90
8684;DHT22;4379;59.744;18.206;2022-12-24T06:28:36;-10.40;99.90
8684;DHT22;4379;59.744;18.206;2022-12-24T06:31:05;-10.40;99.90
8684;DHT22;4379;59.744;18.206;2022-12-24T06:33:33;-10.40;99.90
8684;DHT22;4379;59.744;18.206;2022-12-24T06:36:01;-10.40;99.90
8684;DHT22;4379;59.744;18.206;2022-12-24T06:38:31;-10.40;99.90
8684;DHT22;4379;59.744;18.206;2022-12-24T06:40:58;-10.30;99.90
8684;DHT22;4379;59.744;18.206;2022-12-24T06:43:25;-10.40;99.90
8684;DHT22;4379;59.744;18.206;2022-12-24T06:45:53;-10.40;99.90
8684;DHT22;4379;59.744;18.206;2022-12-24T06:48:20;-10.30;99.90
8684;DHT22;4379;59.744;18.206;2022-12-24T06:50:47;-10.40;99.90
8684;DHT22;4379;59.744;18.206;2022-12-24T06:53:15;-10.20;99.90
8684;DHT22;4379;59.744;18.206;2022-12-24T06:55:42;-10.20;99.90
8684;DHT22;4379;59.744;18.206;2022-12-24T06:58:09;-10.20;99.90
8684;DHT22;4379;59.744;18.206;2022-12-24T07:00:37;-10.30;99.90
8684;DHT22;4379;59.744;18.206;2022-12-24T07:03:04;-10.30;99.90
8684;DHT22;4379;59.744;18.206;2022-12-24T07:05:31;-10.30;99.90
8684;DHT22;4379;59.744;18.206;2022-12-24T07:07:59;-10.30;99.90
8684;DHT22;4379;59.744;18.206;2022-12-24T07:10:26;-10.30;99.90
8684;DHT22;4379;59.744;18.206;2022-12-24T07:12:53;-10.10;99.90
8684;DHT22;4379;59.744;18.206;2022-12-24T07:15:20;-10.00;99.90
8684;DHT22;4379;59.744;18.206;2022-12-24T07:17:47;-10.10;99.90
8684;DHT22;4379;59.744;18.206;2022-12-24T07:20:15;-10.20;99.90
8684;DHT22;4379;59.744;18.206;2022-12-24T07:22:43;-10.30;99.90
8684;DHT22;4379;59.744;18.206;2022-12-24T07:25:10;-10.30;99.90
8684;DHT22;4379;59.744;18.206;2022-12-24T07:27:37;-10.40;99.90
8684;DHT22;4379;59.744;18.206;2022-12-24T07:30:05;-10.40;99.90
8684;DHT22;4379;59.744;18.206;2022-12-24T07:32:33;-10.40;99.90
8684;DHT22;4379;59.744;18.206;2022-12-24T07:35:01;-10.40;99.90
8684;DHT22;4379;59.744;18.206;2022-12-24T07:37:28;-10.40;99.90
8684;DHT22;4379;59.744;18.206;2022-12-24T07:39:55;-10.30;99.90
8684;DHT22;4379;59.744;18.206;2022-12-24T07:42:23;-10.30;99.90
8684;DHT22;4379;59.744;18.206;2022-12-24T07:44:51;-10.10;99.90
8684;DHT22;4379;59.744;18.206;2022-12-24T07:47:18;-10.10;99.90
8684;DHT22;4379;59.744;18.206;2022-12-24T07:49:46;-10.20;99.90
8684;DHT22;4379;59.744;18.206;2022-12-24T07:52:13;-10.10;99.90
8684;DHT22;4379;59.744;18.206;2022-12-24T07:54:40;-10.20;99.90
8684;DHT22;4379;59.744;18.206;2022-12-24T07:57:07;-10.20;99.90
8684;DHT22;4379;59.744;18.206;2022-12-24T07:59:35;-10.20;99.90
8684;DHT22;4379;59.744;18.206;2022-12-24T08:02:04;-10.30;99.90
8684;DHT22;4379;59.744;18.206;2022-12-24T08:04:38;-10.40;99.90
8684;DHT22;4379;59.744;18.206;2022-12-24T08:07:06;-10.30;99.90
8684;DHT22;4379;59.744;18.206;2022-12-24T08:09:34;-10.30;99.90
8684;DHT22;4379;59.744;18.206;2022-12-24T08:12:03;-10.30;99.90
8684;DHT22;4379;59.744;18.206;2022-12-24T08:14:30;-10.30;99.90
8684;DHT22;4379;59.744;18.206;2022-12-24T08:16:58;-10.30;99.90
8684;DHT22;4379;59.744;18.206;2022-12-24T08:19:25;-10.30;99.90
8684;DHT22;4379;59.744;18.206;2022-12-24T08:21:52;-10.30;99.90
8684;DHT22;4379;59.744;18.206;2022-12-24T08:24:19;-10.30;99.90
8684;DHT22;4379;59.744;18.206;2022-12-24T08:26:46;-10.30;99.90
8684;DHT22;4379;59.744;18.206;2022-12-24T08:29:13;-10.30;99.90
8684;DHT22;4379;59.744;18.206;2022-12-24T08:31:41;-10.30;99.90
8684;DHT22;4379;59.744;18.206;2022-12-24T08:34:09;-10.30;99.90
8684;DHT22;4379;59.744;18.206;2022-12-24T08:36:37;-10.20;99.90
8684;DHT22;4379;59.744;18.206;2022-12-24T08:39:05;-10.10;99.90
8684;DHT22;4379;59.744;18.206;2022-12-24T08:41:34;-10.00;99.90
8684;DHT22;4379;59.744;18.206;2022-12-24T08:44:02;-9.90;99.90
8684;DHT22;4379;59.744;18.206;2022-12-24T08:46:29;-9.90;99.90
8684;DHT22;4379;59.744;18.206;2022-12-24T08:48:56;-9.80;99.90
8684;DHT22;4379;59.744;18.206;2022-12-24T08:51:23;-9.80;99.90
8684;DHT22;4379;59.744;18.206;2022-12-24T08:53:50;-9.80;99.90
8684;DHT22;4379;59.744;18.206;2022-12-24T08:56:18;-9.80;99.90
8684;DHT22;4379;59.744;18.206;2022-12-24T08:58:45;-9.90;99.90
8684;DHT22;4379;59.744;18.206;2022-12-24T09:01:17;-10.00;99.90
8684;DHT22;4379;59.744;18.206;2022-12-24T09:03:46;-10.00;99.90
8684;DHT22;4379;59.744;18.206;2022-12-24T09:06:14;-10.00;99.90
8684;DHT22;4379;59.744;18.206;2022-12-24T09:08:41;-10.00;99.90
8684;DHT22;4379;59.744;18.206;2022-12-24T09:11:11;-10.00;99.90
8684;DHT22;4379;59.744;18.206;2022-12-24T09:13:40;-10.10;99.90
8684;DHT22;4379;59.744;18.206;2022-12-24T09:16:07;-10.10;99.90
8684;DHT22;4379;59.744;18.206;2022-12-24T09:18:35;-10.10;99.90
8684;DHT22;4379;59.744;18.206;2022-12-24T09:21:09;-10.00;99.90
8684;DHT22;4379;59.744;18.206;2022-12-24T09:23:47;-10.00;99.90
8684;DHT22;4379;59.744;18.206;2022-12-24T09:26:16;-9.90;99.90
8684;DHT22;4379;59.744;18.206;2022-12-24T09:28:44;-9.90;99.90
8684;DHT22;4379;59.744;18.206;2022-12-24T09:31:12;-9.90;99.90
8684;DHT22;4379;59.744;18.206;2022-12-24T09:33:41;-9.90;99.90
8684;DHT22;4379;59.744;18.206;2022-12-24T09:36:09;-9.90;99.90
8684;DHT22;4379;59.744;18.206;2022-12-24T09:38:37;-9.80;99.90
8684;DHT22;4379;59.744;18.206;2022-12-24T09:41:13;-9.80;99.90
8684;DHT22;4379;59.744;18.206;2022-12-24T09:43:45;-9.60;99.90
8684;DHT22;4379;59.744;18.206;2022-12-24T09:46:35;-9.70;99.90
8684;DHT22;4379;59.744;18.206;2022-12-24T09:49:13;-9.60;99.90
8684;DHT22;4379;59.744;18.206;2022-12-24T09:52:00;-9.60;99.90
8684;DHT22;4379;59.744;18.206;2022-12-24T09:54:37;-9.60;99.90
8684;DHT22;4379;59.744;18.206;2022-12-24T09:57:24;-9.60;99.90
8684;DHT22;4379;59.744;18.206;2022-12-24T09:59:54;-9.50;99.90
8684;DHT22;4379;59.744;18.206;2022-12-24T10:02:21;-9.50;99.90
8684;DHT22;4379;59.744;18.206;2022-12-24T10:04:49;-9.50;99.90
8684;DHT22;4379;59.744;18.206;2022-12-24T10:07:38;-9.40;99.90
8684;DHT22;4379;59.744;18.206;2022-12-24T10:10:17;-9.30;99.90
8684;DHT22;4379;59.744;18.206;2022-12-24T10:15:36;-9.20;99.90
8684;DHT22;4379;59.744;18.206;2022-12-24T10:23:46;-9.10;99.90
8684;DHT22;4379;59.744;18.206;2022-12-24T10:26:19;-9.00;99.90
8684;DHT22;4379;59.744;18.206;2022-12-24T10:28:55;-9.00;99.90
8684;DHT22;4379;59.744;18.206;2022-12-24T10:31:35;-8.90;99.90
8684;DHT22;4379;59.744;18.206;2022-12-24T10:34:12;-8.90;99.90
8684;DHT22;4379;59.744;18.206;2022-12-24T10:36:41;-8.90;99.90
8684;DHT22;4379;59.744;18.206;2022-12-24T10:39:16;-8.90;99.90
8684;DHT22;4379;59.744;18.206;2022-12-24T10:41:47;-8.90;99.90
8684;DHT22;4379;59.744;18.206;2022-12-24T10:44:17;-8.90;99.90
8684;DHT22;4379;59.744;18.206;2022-12-24T10:46:46;-8.90;99.90
8684;DHT22;4379;59.744;18.206;2022-12-24T10:49:16;-8.80;99.90
8684;DHT22;4379;59.744;18.206;2022-12-24T10:52:05;-8.70;99.90
8684;DHT22;4379;59.744;18.206;2022-12-24T10:54:32;-8.80;99.90
8684;DHT22;4379;59.744;18.206;2022-12-24T10:57:22;-8.90;99.90
8684;DHT22;4379;59.744;18.206;2022-12-24T10:59:54;-8.80;99.90
8684;DHT22;4379;59.744;18.206;2022-12-24T11:02:36;-8.70;99.90
8684;DHT22;4379;59.744;18.206;2022-12-24T11:05:07;-8.80;99.90
8684;DHT22;4379;59.744;18.206;2022-12-24T11:08:04;-8.80;99.90
8684;DHT22;4379;59.744;18.206;2022-12-24T11:10:35;-8.80;99.90
8684;DHT22;4379;59.744;18.206;2022-12-24T11:13:02;-8.70;99.90
8684;DHT22;4379;59.744;18.206;2022-12-24T11:16:06;-8.80;99.90
8684;DHT22;4379;59.744;18.206;2022-12-24T11:18:36;-8.60;99.90
8684;DHT22;4379;59.744;18.206;2022-12-24T11:21:05;-8.60;99.90
8684;DHT22;4379;59.744;18.206;2022-12-24T11:23:32;-8.60;99.90
8684;DHT22;4379;59.744;18.206;2022-12-24T11:26:00;-8.60;99.90
8684;DHT22;4379;59.744;18.206;2022-12-24T11:28:30;-8.50;99.90
8684;DHT22;4379;59.744;18.206;2022-12-24T11:31:03;-8.60;99.90
8684;DHT22;4379;59.744;18.206;2022-12-24T11:33:45;-8.70;99.90
8684;DHT22;4379;59.744;18.206;2022-12-24T11:36:13;-8.70;99.90
8684;DHT22;4379;59.744;18.206;2022-12-24T11:38:42;-8.60;99.90
8684;DHT22;4379;59.744;18.206;2022-12-24T11:41:17;-8.60;99.90
8684;DHT22;4379;59.744;18.206;2022-12-24T11:43:50;-8.60;99.90
8684;DHT22;4379;59.744;18.206;2022-12-24T11:48:47;-8.40;99.90
8684;DHT22;4379;59.744;18.206;2022-12-24T11:51:25;-8.40;99.90
8684;DHT22;4379;59.744;18.206;2022-12-24T11:54:18;-8.40;99.90
8684;DHT22;4379;59.744;18.206;2022-12-24T11:56:49;-8.40;99.90
8684;DHT22;4379;59.744;18.206;2022-12-24T11:59:32;-8.40;99.90
8684;DHT22;4379;59.744;18.206;2022-12-24T12:02:31;-8.30;99.90
8684;DHT22;4379;59.744;18.206;2022-12-24T12:05:09;-8.20;99.90
8684;DHT22;4379;59.744;18.206;2022-12-24T12:07:38;-8.20;99.90
8684;DHT22;4379;59.744;18.206;2022-12-24T12:10:32;-8.30;99.90
8684;DHT22;4379;59.744;18.206;2022-12-24T12:13:06;-8.20;99.90
8684;DHT22;4379;59.744;18.206;2022-12-24T12:15:47;-8.20;99.90
8684;DHT22;4379;59.744;18.206;2022-12-24T12:18:33;-8.20;99.90
8684;DHT22;4379;59.744;18.206;2022-12-24T12:21:15;-8.20;99.90
8684;DHT22;4379;59.744;18.206;2022-12-24T12:23:50;-8.10;99.90
8684;DHT22;4379;59.744;18.206;2022-12-24T12:26:26;-8.10;99.90
8684;DHT22;4379;59.744;18.206;2022-12-24T12:28:58;-8.10;99.90
8684;DHT22;4379;59.744;18.206;2022-12-24T12:37:08;-8.10;99.90
8684;DHT22;4379;59.744;18.206;2022-12-24T12:39:41;-8.10;99.90
8684;DHT22;4379;59.744;18.206;2022-12-24T12:48:43;-8.10;99.90
8684;DHT22;4379;59.744;18.206;2022-12-24T12:51:25;-8.20;99.90
8684;DHT22;4379;59.744;18.206;2022-12-24T12:56:43;-8.30;99.90
8684;DHT22;4379;59.744;18.206;2022-12-24T12:59:35;-8.30;99.90
8684;DHT22;4379;59.744;18.206;2022-12-24T13:10:54;-8.30;99.90
8684;DHT22;4379;59.744;18.206;2022-12-24T13:18:45;-8.40;99.90
8684;DHT22;4379;59.744;18.206;2022-12-24T13:21:27;-8.50;99.90
8684;DHT22;4379;59.744;18.206;2022-12-24T13:24:18;-8.50;99.90
8684;DHT22;4379;59.744;18.206;2022-12-24T13:27:11;-8.60;99.90
8684;DHT22;4379;59.744;18.206;2022-12-24T13:29:45;-8.70;99.90
8684;DHT22;4379;59.744;18.206;2022-12-24T13:34:56;-8.70;99.90
8684;DHT22;4379;59.744;18.206;2022-12-24T13:37:32;-8.80;99.90
8684;DHT22;4379;59.744;18.206;2022-12-24T13:51:28;-9.00;99.90
8684;DHT22;4379;59.744;18.206;2022-12-24T13:53:44;-9.20;99.90
8684;DHT22;4379;59.744;18.206;2022-12-24T13:58:43;-9.30;99.90
8684;DHT22;4379;59.744;18.206;2022-12-24T14:08:49;-9.40;99.90
8684;DHT22;4379;59.744;18.206;2022-12-24T14:11:25;-9.40;99.90
8684;DHT22;4379;59.744;18.206;2022-12-24T14:16:42;-9.50;99.90
8684;DHT22;4379;59.744;18.206;2022-12-24T14:19:24;-9.60;99.90
8684;DHT22;4379;59.744;18.206;2022-12-24T14:21:57;-9.60;99.90
8684;DHT22;4379;59.744;18.206;2022-12-24T14:24:34;-9.70;99.90
8684;DHT22;4379;59.744;18.206;2022-12-24T14:27:19;-9.60;99.90
8684;DHT22;4379;59.744;18.206;2022-12-24T14:30:21;-9.60;99.90
8684;DHT22;4379;59.744;18.206;2022-12-24T14:32:51;-9.70;99.90
8684;DHT22;4379;59.744;18.206;2022-12-24T14:35:21;-9.70;99.90
8684;DHT22;4379;59.744;18.206;2022-12-24T14:38:04;-9.80;99.90
8684;DHT22;4379;59.744;18.206;2022-12-24T14:40:35;-9.80;99.90
8684;DHT22;4379;59.744;18.206;2022-12-24T14:45:53;-9.90;99.90
8684;DHT22;4379;59.744;18.206;2022-12-24T14:48:44;-9.90;99.90
8684;DHT22;4379;59.744;18.206;2022-12-24T14:54:32;-9.80;99.90
8684;DHT22;4379;59.744;18.206;2022-12-24T14:59:54;-9.90;99.90
8684;DHT22;4379;59.744;18.206;2022-12-24T15:02:30;-9.90;99.90
8684;DHT22;4379;59.744;18.206;2022-12-24T15:05:26;-9.90;99.90
8684;DHT22;4379;59.744;18.206;2022-12-24T15:08:03;-10.00;99.90
8684;DHT22;4379;59.744;18.206;2022-12-24T15:10:40;-9.90;99.90
8684;DHT22;4379;59.744;18.206;2022-12-24T15:13:32;-9.90;99.90
8684;DHT22;4379;59.744;18.206;2022-12-24T15:16:05;-9.80;99.90
8684;DHT22;4379;59.744;18.206;2022-12-24T15:18:37;-9.90;99.90
8684;DHT22;4379;59.744;18.206;2022-12-24T15:21:07;-9.90;99.90
8684;DHT22;4379;59.744;18.206;2022-12-24T15:23:45;-10.00;99.90
8684;DHT22;4379;59.744;18.206;2022-12-24T15:28:41;-9.90;99.90
8684;DHT22;4379;59.744;18.206;2022-12-24T15:31:22;-9.90;99.90
8684;DHT22;4379;59.744;18.206;2022-12-24T15:33:51;-9.90;99.90
8684;DHT22;4379;59.744;18.206;2022-12-24T15:36:28;-9.90;99.90
8684;DHT22;4379;59.744;18.206;2022-12-24T15:39:00;-10.00;99.90
8684;DHT22;4379;59.744;18.206;2022-12-24T15:41:35;-10.00;99.90
8684;DHT22;4379;59.744;18.206;2022-12-24T15:44:04;-10.00;99.90
8684;DHT22;4379;59.744;18.206;2022-12-24T15:46:31;-10.00;99.90
8684;DHT22;4379;59.744;18.206;2022-12-24T15:49:01;-10.00;99.90
8684;DHT22;4379;59.744;18.206;2022-12-24T15:51:34;-10.10;99.90
8684;DHT22;4379;59.744;18.206;2022-12-24T15:54:12;-10.10;99.90
8684;DHT22;4379;59.744;18.206;2022-12-24T15:56:43;-10.10;99.90
8684;DHT22;4379;59.744;18.206;2022-12-24T15:59:27;-10.10;99.90
8684;DHT22;4379;59.744;18.206;2022-12-24T16:02:39;-10.00;99.90
8684;DHT22;4379;59.744;18.206;2022-12-24T16:10:39;-10.20;99.90
8684;DHT22;4379;59.744;18.206;2022-12-24T16:13:31;-10.20;99.90
8684;DHT22;4379;59.744;18.206;2022-12-24T16:16:02;-10.20;99.90
8684;DHT22;4379;59.744;18.206;2022-12-24T16:18:54;-10.30;99.90
8684;DHT22;4379;59.744;18.206;2022-12-24T16:21:30;-10.20;99.90
8684;DHT22;4379;59.744;18.206;2022-12-24T16:24:04;-10.30;99.90
8684;DHT22;4379;59.744;18.206;2022-12-24T16:26:35;-10.30;99.90
8684;DHT22;4379;59.744;18.206;2022-12-24T16:29:03;-10.30;99.90
8684;DHT22;4379;59.744;18.206;2022-12-24T16:31:34;-10.40;99.90
8684;DHT22;4379;59.744;18.206;2022-12-24T16:34:02;-10.30;99.90
8684;DHT22;4379;59.744;18.206;2022-12-24T16:36:31;-10.30;99.90
8684;DHT22;4379;59.744;18.206;2022-12-24T16:38:58;-10.20;99.90
8684;DHT22;4379;59.744;18.206;2022-12-24T16:41:44;-10.20;99.90
8684;DHT22;4379;59.744;18.206;2022-12-24T16:44:30;-10.20;99.90
8684;DHT22;4379;59.744;18.206;2022-12-24T16:46:59;-10.10;99.90
8684;DHT22;4379;59.744;18.206;2022-12-24T16:49:27;-10.10;99.90
8684;DHT22;4379;59.744;18.206;2022-12-24T16:51:54;-10.00;99.90
8684;DHT22;4379;59.744;18.206;2022-12-24T16:54:22;-9.90;99.90
8684;DHT22;4379;59.744;18.206;2022-12-24T16:56:49;-10.00;99.90
8684;DHT22;4379;59.744;18.206;2022-12-24T16:59:20;-10.00;99.90
8684;DHT22;4379;59.744;18.206;2022-12-24T17:01:49;-10.00;99.90
8684;DHT22;4379;59.744;18.206;2022-12-24T17:04:17;-10.00;99.90
8684;DHT22;4379;59.744;18.206;2022-12-24T17:06:47;-9.90;99.90
8684;DHT22;4379;59.744;18.206;2022-12-24T17:09:14;-10.00;99.90
8684;DHT22;4379;59.744;18.206;2022-12-24T17:11:42;-10.00;99.90
8684;DHT22;4379;59.744;18.206;2022-12-24T17:14:11;-10.00;99.90
8684;DHT22;4379;59.744;18.206;2022-12-24T17:16:45;-10.10;99.90
8684;DHT22;4379;59.744;18.206;2022-12-24T17:19:12;-10.10;99.90
8684;DHT22;4379;59.744;18.206;2022-12-24T17:21:40;-10.10;99.90
8684;DHT22;4379;59.744;18.206;2022-12-24T17:24:07;-10.20;99.90
8684;DHT22;4379;59.744;18.206;2022-12-24T17:26:35;-10.30;99.90
8684;DHT22;4379;59.744;18.206;2022-12-24T17:29:03;-10.30;99.90
8684;DHT22;4379;59.744;18.206;2022-12-24T17:31:32;-10.30;99.90
8684;DHT22;4379;59.744;18.206;2022-12-24T17:33:59;-10.30;99.90
8684;DHT22;4379;59.744;18.206;2022-12-24T17:36:26;-10.30;99.90
8684;DHT22;4379;59.744;18.206;2022-12-24T17:38:53;-10.40;99.90
8684;DHT22;4379;59.744;18.206;2022-12-24T17:41:21;-10.40;99.90
8684;DHT22;4379;59.744;18.206;2022-12-24T17:43:48;-10.40;99.90
8684;DHT22;4379;59.744;18.206;2022-12-24T17:46:21;-10.40;99.90
8684;DHT22;4379;59.744;18.206;2022-12-24T17:48:49;-10.30;99.90
8684;DHT22;4379;59.744;18.206;2022-12-24T17:51:21;-10.40;99.90
8684;DHT22;4379;59.744;18.206;2022-12-24T17:53:49;-10.40;99.90
8684;DHT22;4379;59.744;18.206;2022-12-24T17:56:17;-10.30;99.90